Citrus City, Texas
Current Conditions -  °F | °C
As of 1:53 PM on Saturday 20 Dec 2014 (Local Time) from KMFE Reporting Station
Overcast Overcast  
Wind Chill: 58°   Ceiling: 1400
Heat Index: 58°   Visibility: 10mi
Dew Point: 52°   Wind: 10mph
Humidity: 81%   Direction: 340°NNW
Pressure: 30.15"   Gusts: NA
Location:  26.2167°N, 98.325°W
Report Text: KMFE 201953Z 34009KT 10SM OVC014 14/11 A3015 RMK AO2 SLP208 T01440111
Loading
Personal Weather Stations






























Interactive Weather Map New forecast layout! Learn more

10-Day Weather Forecast

Advertisements
Track Severe Weather on mobile